sensor_id;sensor_type;location;lat;lon;timestamp;P1;durP1;ratioP1;P2;durP2;ratioP2
9424;SDS011;17139;52.140;11.636;2023-09-30T00:01:44;3.97;;;2.17;;
9424;SDS011;17139;52.140;11.636;2023-09-30T00:04:12;2.55;;;2.05;;
9424;SDS011;17139;52.140;11.636;2023-09-30T00:06:40;7.13;;;2.28;;
9424;SDS011;17139;52.140;11.636;2023-09-30T00:09:07;5.85;;;2.10;;
9424;SDS011;17139;52.140;11.636;2023-09-30T00:11:34;4.57;;;2.42;;
9424;SDS011;17139;52.140;11.636;2023-09-30T00:14:01;8.25;;;2.15;;
9424;SDS011;17139;52.140;11.636;2023-09-30T00:16:28;1.98;;;1.88;;
9424;SDS011;17139;52.140;11.636;2023-09-30T00:18:56;7.00;;;2.70;;
9424;SDS011;17139;52.140;11.636;2023-09-30T00:21:23;4.78;;;2.30;;
9424;SDS011;17139;52.140;11.636;2023-09-30T00:23:51;3.22;;;2.05;;
9424;SDS011;17139;52.140;11.636;2023-09-30T00:26:18;3.90;;;2.40;;
9424;SDS011;17139;52.140;11.636;2023-09-30T00:28:46;4.72;;;2.10;;
9424;SDS011;17139;52.140;11.636;2023-09-30T00:31:13;6.32;;;2.28;;
9424;SDS011;17139;52.140;11.636;2023-09-30T00:33:40;5.65;;;2.88;;
9424;SDS011;17139;52.140;11.636;2023-09-30T00:36:07;2.60;;;2.40;;
9424;SDS011;17139;52.140;11.636;2023-09-30T00:38:36;2.92;;;2.50;;
9424;SDS011;17139;52.140;11.636;2023-09-30T00:41:04;5.15;;;2.78;;
9424;SDS011;17139;52.140;11.636;2023-09-30T00:43:32;3.15;;;2.70;;
9424;SDS011;17139;52.140;11.636;2023-09-30T00:46:02;3.85;;;2.80;;
9424;SDS011;17139;52.140;11.636;2023-09-30T00:48:32;5.00;;;3.47;;
9424;SDS011;17139;52.140;11.636;2023-09-30T00:51:00;2.45;;;2.25;;
9424;SDS011;17139;52.140;11.636;2023-09-30T00:53:27;7.60;;;3.58;;
9424;SDS011;17139;52.140;11.636;2023-09-30T00:55:55;3.70;;;3.08;;
9424;SDS011;17139;52.140;11.636;2023-09-30T00:58:25;10.80;;;3.38;;
9424;SDS011;17139;52.140;11.636;2023-09-30T01:00:54;3.25;;;2.60;;
9424;SDS011;17139;52.140;11.636;2023-09-30T01:03:23;3.40;;;2.85;;
9424;SDS011;17139;52.140;11.636;2023-09-30T01:05:49;8.68;;;3.13;;
9424;SDS011;17139;52.140;11.636;2023-09-30T01:08:17;3.22;;;2.88;;
9424;SDS011;17139;52.140;11.636;2023-09-30T01:10:45;6.70;;;3.50;;
9424;SDS011;17139;52.140;11.636;2023-09-30T01:13:12;4.25;;;3.03;;
9424;SDS011;17139;52.140;11.636;2023-09-30T01:15:40;5.78;;;3.45;;
9424;SDS011;17139;52.140;11.636;2023-09-30T01:18:07;9.05;;;3.25;;
9424;SDS011;17139;52.140;11.636;2023-09-30T01:20:34;4.50;;;2.75;;
9424;SDS011;17139;52.140;11.636;2023-09-30T01:23:03;3.38;;;2.50;;
9424;SDS011;17139;52.140;11.636;2023-09-30T01:25:30;4.93;;;2.70;;
9424;SDS011;17139;52.140;11.636;2023-09-30T01:27:58;5.05;;;2.60;;
9424;SDS011;17139;52.140;11.636;2023-09-30T01:30:31;3.67;;;2.55;;
9424;SDS011;17139;52.140;11.636;2023-09-30T01:32:58;8.23;;;3.38;;
9424;SDS011;17139;52.140;11.636;2023-09-30T01:35:26;7.85;;;2.67;;
9424;SDS011;17139;52.140;11.636;2023-09-30T01:37:53;5.97;;;3.63;;
9424;SDS011;17139;52.140;11.636;2023-09-30T01:40:21;2.83;;;2.60;;
9424;SDS011;17139;52.140;11.636;2023-09-30T01:42:48;8.90;;;3.30;;
9424;SDS011;17139;52.140;11.636;2023-09-30T01:45:15;6.55;;;2.67;;
9424;SDS011;17139;52.140;11.636;2023-09-30T01:47:42;10.00;;;3.10;;
9424;SDS011;17139;52.140;11.636;2023-09-30T01:50:09;7.47;;;3.22;;
9424;SDS011;17139;52.140;11.636;2023-09-30T01:52:36;4.95;;;2.90;;
9424;SDS011;17139;52.140;11.636;2023-09-30T01:55:04;3.72;;;2.95;;
9424;SDS011;17139;52.140;11.636;2023-09-30T01:57:33;7.68;;;3.67;;
9424;SDS011;17139;52.140;11.636;2023-09-30T02:00:00;6.20;;;3.17;;
9424;SDS011;17139;52.140;11.636;2023-09-30T02:02:26;5.82;;;2.50;;
9424;SDS011;17139;52.140;11.636;2023-09-30T02:04:53;4.65;;;2.75;;
9424;SDS011;17139;52.140;11.636;2023-09-30T02:07:20;6.00;;;2.80;;
9424;SDS011;17139;52.140;11.636;2023-09-30T02:09:47;9.02;;;3.17;;
9424;SDS011;17139;52.140;11.636;2023-09-30T02:12:15;9.27;;;2.65;;
9424;SDS011;17139;52.140;11.636;2023-09-30T02:14:43;6.43;;;2.65;;
9424;SDS011;17139;52.140;11.636;2023-09-30T02:17:11;9.63;;;3.15;;
9424;SDS011;17139;52.140;11.636;2023-09-30T02:19:39;4.30;;;2.60;;
9424;SDS011;17139;52.140;11.636;2023-09-30T02:22:06;8.30;;;3.25;;
9424;SDS011;17139;52.140;11.636;2023-09-30T02:24:33;7.38;;;3.35;;
9424;SDS011;17139;52.140;11.636;2023-09-30T02:27:00;7.03;;;2.78;;
9424;SDS011;17139;52.140;11.636;2023-09-30T02:29:27;5.28;;;2.53;;
9424;SDS011;17139;52.140;11.636;2023-09-30T02:31:57;4.07;;;3.10;;
9424;SDS011;17139;52.140;11.636;2023-09-30T02:34:24;6.97;;;2.67;;
9424;SDS011;17139;52.140;11.636;2023-09-30T02:36:52;6.13;;;2.58;;
9424;SDS011;17139;52.140;11.636;2023-09-30T02:39:20;5.72;;;2.63;;
9424;SDS011;17139;52.140;11.636;2023-09-30T02:41:47;6.57;;;3.53;;
9424;SDS011;17139;52.140;11.636;2023-09-30T02:44:15;10.10;;;3.90;;
9424;SDS011;17139;52.140;11.636;2023-09-30T02:46:42;7.10;;;2.88;;
9424;SDS011;17139;52.140;11.636;2023-09-30T02:49:10;8.98;;;3.72;;
9424;SDS011;17139;52.140;11.636;2023-09-30T02:51:37;4.65;;;3.15;;
9424;SDS011;17139;52.140;11.636;2023-09-30T02:54:05;10.18;;;3.22;;
9424;SDS011;17139;52.140;11.636;2023-09-30T02:56:32;6.15;;;2.80;;
9424;SDS011;17139;52.140;11.636;2023-09-30T02:58:59;5.18;;;3.03;;
9424;SDS011;17139;52.140;11.636;2023-09-30T03:01:26;6.03;;;3.47;;
9424;SDS011;17139;52.140;11.636;2023-09-30T03:03:53;5.38;;;2.85;;
9424;SDS011;17139;52.140;11.636;2023-09-30T03:06:22;6.25;;;2.90;;
9424;SDS011;17139;52.140;11.636;2023-09-30T03:08:49;8.55;;;4.20;;
9424;SDS011;17139;52.140;11.636;2023-09-30T03:11:17;6.03;;;3.08;;
9424;SDS011;17139;52.140;11.636;2023-09-30T03:13:45;10.30;;;4.28;;
9424;SDS011;17139;52.140;11.636;2023-09-30T03:16:12;9.90;;;3.20;;
9424;SDS011;17139;52.140;11.636;2023-09-30T03:18:38;10.70;;;3.53;;
9424;SDS011;17139;52.140;11.636;2023-09-30T03:21:13;11.98;;;3.53;;
9424;SDS011;17139;52.140;11.636;2023-09-30T03:23:42;5.85;;;2.78;;
9424;SDS011;17139;52.140;11.636;2023-09-30T03:26:10;4.75;;;3.22;;
9424;SDS011;17139;52.140;11.636;2023-09-30T03:28:37;10.27;;;3.05;;
9424;SDS011;17139;52.140;11.636;2023-09-30T03:31:04;7.60;;;3.30;;
9424;SDS011;17139;52.140;11.636;2023-09-30T03:33:32;7.13;;;3.15;;
9424;SDS011;17139;52.140;11.636;2023-09-30T03:36:00;3.53;;;3.25;;
9424;SDS011;17139;52.140;11.636;2023-09-30T03:38:28;9.98;;;4.03;;
9424;SDS011;17139;52.140;11.636;2023-09-30T03:40:57;7.05;;;3.63;;
9424;SDS011;17139;52.140;11.636;2023-09-30T03:43:26;5.45;;;3.13;;
9424;SDS011;17139;52.140;11.636;2023-09-30T03:45:53;10.73;;;3.90;;
9424;SDS011;17139;52.140;11.636;2023-09-30T03:48:22;16.38;;;3.88;;
9424;SDS011;17139;52.140;11.636;2023-09-30T03:50:49;13.30;;;3.47;;
9424;SDS011;17139;52.140;11.636;2023-09-30T03:53:17;9.05;;;2.95;;
9424;SDS011;17139;52.140;11.636;2023-09-30T03:55:44;3.92;;;3.13;;
9424;SDS011;17139;52.140;11.636;2023-09-30T03:58:13;8.07;;;3.97;;
9424;SDS011;17139;52.140;11.636;2023-09-30T04:00:40;9.13;;;3.70;;
9424;SDS011;17139;52.140;11.636;2023-09-30T04:03:07;7.75;;;3.28;;
9424;SDS011;17139;52.140;11.636;2023-09-30T04:05:34;11.25;;;3.20;;
9424;SDS011;17139;52.140;11.636;2023-09-30T04:08:02;9.23;;;3.30;;
9424;SDS011;17139;52.140;11.636;2023-09-30T04:10:30;5.78;;;3.35;;
9424;SDS011;17139;52.140;11.636;2023-09-30T04:12:57;5.82;;;3.42;;
9424;SDS011;17139;52.140;11.636;2023-09-30T04:15:26;5.35;;;3.30;;
9424;SDS011;17139;52.140;11.636;2023-09-30T04:17:53;12.40;;;4.03;;
9424;SDS011;17139;52.140;11.636;2023-09-30T04:20:20;9.00;;;4.15;;
9424;SDS011;17139;52.140;11.636;2023-09-30T04:22:48;13.55;;;3.53;;
9424;SDS011;17139;52.140;11.636;2023-09-30T04:25:16;7.50;;;4.05;;
9424;SDS011;17139;52.140;11.636;2023-09-30T04:27:43;12.15;;;3.55;;
9424;SDS011;17139;52.140;11.636;2023-09-30T04:30:13;13.32;;;4.40;;
9424;SDS011;17139;52.140;11.636;2023-09-30T04:32:41;7.50;;;2.80;;
9424;SDS011;17139;52.140;11.636;2023-09-30T04:35:09;8.82;;;3.25;;
9424;SDS011;17139;52.140;11.636;2023-09-30T04:37:37;11.70;;;4.05;;
9424;SDS011;17139;52.140;11.636;2023-09-30T04:40:05;9.93;;;3.15;;
9424;SDS011;17139;52.140;11.636;2023-09-30T04:42:40;16.95;;;3.35;;
9424;SDS011;17139;52.140;11.636;2023-09-30T04:45:08;9.40;;;4.35;;
9424;SDS011;17139;52.140;11.636;2023-09-30T04:47:36;8.70;;;3.55;;
9424;SDS011;17139;52.140;11.636;2023-09-30T04:50:06;11.50;;;4.33;;
9424;SDS011;17139;52.140;11.636;2023-09-30T04:52:34;10.15;;;4.68;;
9424;SDS011;17139;52.140;11.636;2023-09-30T04:55:01;8.30;;;3.13;;
9424;SDS011;17139;52.140;11.636;2023-09-30T04:57:29;9.90;;;4.43;;
9424;SDS011;17139;52.140;11.636;2023-09-30T04:59:56;6.85;;;3.28;;
9424;SDS011;17139;52.140;11.636;2023-09-30T05:02:24;7.72;;;3.35;;
9424;SDS011;17139;52.140;11.636;2023-09-30T05:04:52;6.72;;;3.50;;
9424;SDS011;17139;52.140;11.636;2023-09-30T05:07:21;14.80;;;4.30;;
9424;SDS011;17139;52.140;11.636;2023-09-30T05:09:48;7.57;;;3.88;;
9424;SDS011;17139;52.140;11.636;2023-09-30T05:12:15;10.95;;;3.15;;
9424;SDS011;17139;52.140;11.636;2023-09-30T05:14:42;9.50;;;3.60;;
9424;SDS011;17139;52.140;11.636;2023-09-30T05:17:09;12.38;;;3.30;;
9424;SDS011;17139;52.140;11.636;2023-09-30T05:19:37;5.72;;;3.08;;
9424;SDS011;17139;52.140;11.636;2023-09-30T05:22:04;4.90;;;2.38;;
9424;SDS011;17139;52.140;11.636;2023-09-30T05:24:32;9.68;;;3.80;;
9424;SDS011;17139;52.140;11.636;2023-09-30T05:27:00;4.88;;;2.95;;
9424;SDS011;17139;52.140;11.636;2023-09-30T05:29:27;6.78;;;2.95;;
9424;SDS011;17139;52.140;11.636;2023-09-30T05:31:55;6.97;;;3.45;;
9424;SDS011;17139;52.140;11.636;2023-09-30T05:34:22;10.63;;;4.20;;
9424;SDS011;17139;52.140;11.636;2023-09-30T05:36:49;10.35;;;3.58;;
9424;SDS011;17139;52.140;11.636;2023-09-30T05:39:16;3.45;;;2.58;;
9424;SDS011;17139;52.140;11.636;2023-09-30T05:41:46;7.38;;;2.80;;
9424;SDS011;17139;52.140;11.636;2023-09-30T05:44:13;6.82;;;2.90;;
9424;SDS011;17139;52.140;11.636;2023-09-30T05:46:40;13.07;;;3.88;;
9424;SDS011;17139;52.140;11.636;2023-09-30T05:49:08;5.75;;;3.28;;
9424;SDS011;17139;52.140;11.636;2023-09-30T05:51:38;7.55;;;2.95;;
9424;SDS011;17139;52.140;11.636;2023-09-30T05:54:06;6.50;;;2.72;;
9424;SDS011;17139;52.140;11.636;2023-09-30T05:56:35;4.57;;;3.05;;
9424;SDS011;17139;52.140;11.636;2023-09-30T05:59:04;9.60;;;3.25;;
9424;SDS011;17139;52.140;11.636;2023-09-30T06:01:32;4.75;;;3.45;;
9424;SDS011;17139;52.140;11.636;2023-09-30T06:03:59;6.07;;;3.13;;
9424;SDS011;17139;52.140;11.636;2023-09-30T06:06:26;7.70;;;3.30;;
9424;SDS011;17139;52.140;11.636;2023-09-30T06:08:54;8.02;;;3.38;;
9424;SDS011;17139;52.140;11.636;2023-09-30T06:11:23;10.00;;;3.10;;
9424;SDS011;17139;52.140;11.636;2023-09-30T06:13:53;7.70;;;3.60;;
9424;SDS011;17139;52.140;11.636;2023-09-30T06:16:22;5.82;;;2.80;;
9424;SDS011;17139;52.140;11.636;2023-09-30T06:18:51;7.45;;;3.67;;
9424;SDS011;17139;52.140;11.636;2023-09-30T06:21:18;8.73;;;3.30;;
9424;SDS011;17139;52.140;11.636;2023-09-30T06:23:47;7.07;;;3.38;;
9424;SDS011;17139;52.140;11.636;2023-09-30T06:26:17;9.25;;;3.40;;
9424;SDS011;17139;52.140;11.636;2023-09-30T06:28:44;3.20;;;2.70;;
9424;SDS011;17139;52.140;11.636;2023-09-30T06:31:12;12.45;;;3.55;;
9424;SDS011;17139;52.140;11.636;2023-09-30T06:33:41;2.63;;;2.42;;
9424;SDS011;17139;52.140;11.636;2023-09-30T06:36:09;4.97;;;3.30;;
9424;SDS011;17139;52.140;11.636;2023-09-30T06:38:36;4.03;;;3.38;;
9424;SDS011;17139;52.140;11.636;2023-09-30T06:41:03;7.90;;;3.53;;
9424;SDS011;17139;52.140;11.636;2023-09-30T06:43:30;8.88;;;3.22;;
9424;SDS011;17139;52.140;11.636;2023-09-30T06:45:58;5.15;;;2.75;;
9424;SDS011;17139;52.140;11.636;2023-09-30T06:48:25;8.57;;;3.03;;
9424;SDS011;17139;52.140;11.636;2023-09-30T06:50:53;9.98;;;3.75;;
9424;SDS011;17139;52.140;11.636;2023-09-30T06:53:20;11.40;;;4.07;;
9424;SDS011;17139;52.140;11.636;2023-09-30T06:55:48;11.25;;;3.63;;
9424;SDS011;17139;52.140;11.636;2023-09-30T06:58:16;3.75;;;3.42;;
9424;SDS011;17139;52.140;11.636;2023-09-30T07:00:46;4.20;;;3.05;;
9424;SDS011;17139;52.140;11.636;2023-09-30T07:03:15;8.90;;;3.30;;
9424;SDS011;17139;52.140;11.636;2023-09-30T07:05:42;6.22;;;2.70;;
9424;SDS011;17139;52.140;11.636;2023-09-30T07:08:10;7.15;;;3.35;;
9424;SDS011;17139;52.140;11.636;2023-09-30T07:10:37;7.95;;;3.15;;
9424;SDS011;17139;52.140;11.636;2023-09-30T07:13:04;7.05;;;3.15;;
9424;SDS011;17139;52.140;11.636;2023-09-30T07:15:32;9.23;;;3.85;;
9424;SDS011;17139;52.140;11.636;2023-09-30T07:17:59;6.65;;;3.45;;
9424;SDS011;17139;52.140;11.636;2023-09-30T07:20:27;7.93;;;3.85;;
9424;SDS011;17139;52.140;11.636;2023-09-30T07:22:57;8.95;;;3.47;;
9424;SDS011;17139;52.140;11.636;2023-09-30T07:25:26;12.00;;;3.53;;
9424;SDS011;17139;52.140;11.636;2023-09-30T07:27:53;8.45;;;3.17;;
9424;SDS011;17139;52.140;11.636;2023-09-30T07:30:20;5.95;;;3.50;;
9424;SDS011;17139;52.140;11.636;2023-09-30T07:32:47;6.63;;;3.40;;
9424;SDS011;17139;52.140;11.636;2023-09-30T07:35:15;4.40;;;3.33;;
9424;SDS011;17139;52.140;11.636;2023-09-30T07:37:42;6.47;;;3.40;;
9424;SDS011;17139;52.140;11.636;2023-09-30T07:40:10;7.25;;;3.55;;
9424;SDS011;17139;52.140;11.636;2023-09-30T07:42:39;4.53;;;3.05;;
9424;SDS011;17139;52.140;11.636;2023-09-30T07:45:06;6.40;;;3.63;;
9424;SDS011;17139;52.140;11.636;2023-09-30T07:47:35;5.72;;;3.60;;
9424;SDS011;17139;52.140;11.636;2023-09-30T07:50:03;7.68;;;3.90;;
9424;SDS011;17139;52.140;11.636;2023-09-30T07:52:34;5.82;;;3.75;;
9424;SDS011;17139;52.140;11.636;2023-09-30T07:55:02;6.10;;;3.30;;
9424;SDS011;17139;52.140;11.636;2023-09-30T07:57:30;9.55;;;3.70;;
9424;SDS011;17139;52.140;11.636;2023-09-30T07:59:59;7.65;;;3.00;;
9424;SDS011;17139;52.140;11.636;2023-09-30T08:02:29;4.47;;;3.40;;
9424;SDS011;17139;52.140;11.636;2023-09-30T08:04:58;7.68;;;2.72;;
9424;SDS011;17139;52.140;11.636;2023-09-30T08:07:25;5.78;;;2.88;;
9424;SDS011;17139;52.140;11.636;2023-09-30T08:09:52;9.52;;;3.47;;
9424;SDS011;17139;52.140;11.636;2023-09-30T08:12:19;8.05;;;2.88;;
9424;SDS011;17139;52.140;11.636;2023-09-30T08:14:46;5.78;;;3.30;;
9424;SDS011;17139;52.140;11.636;2023-09-30T08:17:15;7.13;;;3.17;;
9424;SDS011;17139;52.140;11.636;2023-09-30T08:19:42;4.07;;;2.97;;
9424;SDS011;17139;52.140;11.636;2023-09-30T08:22:11;2.97;;;2.03;;
9424;SDS011;17139;52.140;11.636;2023-09-30T08:24:38;5.85;;;3.20;;
9424;SDS011;17139;52.140;11.636;2023-09-30T08:27:05;4.57;;;2.42;;
9424;SDS011;17139;52.140;11.636;2023-09-30T08:29:33;7.53;;;2.60;;
9424;SDS011;17139;52.140;11.636;2023-09-30T08:32:02;6.03;;;2.95;;
9424;SDS011;17139;52.140;11.636;2023-09-30T08:34:30;11.60;;;3.13;;
9424;SDS011;17139;52.140;11.636;2023-09-30T08:36:58;7.72;;;3.08;;
9424;SDS011;17139;52.140;11.636;2023-09-30T08:39:26;4.70;;;2.63;;
9424;SDS011;17139;52.140;11.636;2023-09-30T08:41:54;7.13;;;2.50;;
9424;SDS011;17139;52.140;11.636;2023-09-30T08:44:23;12.38;;;3.08;;
9424;SDS011;17139;52.140;11.636;2023-09-30T08:46:51;3.38;;;2.38;;
9424;SDS011;17139;52.140;11.636;2023-09-30T08:49:20;3.90;;;2.47;;
9424;SDS011;17139;52.140;11.636;2023-09-30T08:51:49;4.00;;;2.80;;
9424;SDS011;17139;52.140;11.636;2023-09-30T08:54:17;5.15;;;2.30;;
9424;SDS011;17139;52.140;11.636;2023-09-30T08:56:45;5.07;;;2.70;;
9424;SDS011;17139;52.140;11.636;2023-09-30T08:59:15;8.45;;;2.78;;
9424;SDS011;17139;52.140;11.636;2023-09-30T09:01:43;6.88;;;2.90;;
9424;SDS011;17139;52.140;11.636;2023-09-30T09:04:10;4.15;;;2.83;;
9424;SDS011;17139;52.140;11.636;2023-09-30T09:06:37;6.68;;;2.75;;
9424;SDS011;17139;52.140;11.636;2023-09-30T09:09:14;6.63;;;2.92;;
9424;SDS011;17139;52.140;11.636;2023-09-30T09:11:43;6.60;;;2.88;;
9424;SDS011;17139;52.140;11.636;2023-09-30T09:14:10;3.20;;;2.35;;
9424;SDS011;17139;52.140;11.636;2023-09-30T09:16:37;5.18;;;2.83;;
9424;SDS011;17139;52.140;11.636;2023-09-30T09:19:16;6.03;;;2.90;;
9424;SDS011;17139;52.140;11.636;2023-09-30T09:21:53;8.32;;;2.63;;
9424;SDS011;17139;52.140;11.636;2023-09-30T09:24:30;8.88;;;2.92;;
9424;SDS011;17139;52.140;11.636;2023-09-30T09:27:04;7.95;;;2.97;;
9424;SDS011;17139;52.140;11.636;2023-09-30T09:29:32;6.28;;;2.50;;
9424;SDS011;17139;52.140;11.636;2023-09-30T09:32:06;4.68;;;2.63;;
9424;SDS011;17139;52.140;11.636;2023-09-30T09:34:34;6.65;;;2.90;;
9424;SDS011;17139;52.140;11.636;2023-09-30T09:37:01;4.30;;;2.30;;
9424;SDS011;17139;52.140;11.636;2023-09-30T09:39:41;6.32;;;2.75;;
9424;SDS011;17139;52.140;11.636;2023-09-30T09:42:26;3.60;;;2.30;;
9424;SDS011;17139;52.140;11.636;2023-09-30T09:44:54;4.90;;;2.58;;
9424;SDS011;17139;52.140;11.636;2023-09-30T09:47:23;9.65;;;3.20;;
9424;SDS011;17139;52.140;11.636;2023-09-30T09:49:51;6.53;;;2.47;;
9424;SDS011;17139;52.140;11.636;2023-09-30T09:52:20;6.60;;;2.97;;
9424;SDS011;17139;52.140;11.636;2023-09-30T09:54:48;9.65;;;3.17;;
9424;SDS011;17139;52.140;11.636;2023-09-30T09:57:17;5.57;;;2.88;;
9424;SDS011;17139;52.140;11.636;2023-09-30T09:59:45;6.35;;;2.30;;
9424;SDS011;17139;52.140;11.636;2023-09-30T10:02:13;3.13;;;2.13;;
9424;SDS011;17139;52.140;11.636;2023-09-30T10:04:42;5.07;;;2.55;;
9424;SDS011;17139;52.140;11.636;2023-09-30T10:07:11;3.97;;;2.60;;
9424;SDS011;17139;52.140;11.636;2023-09-30T10:09:43;4.55;;;2.42;;
9424;SDS011;17139;52.140;11.636;2023-09-30T10:12:15;6.32;;;2.50;;
9424;SDS011;17139;52.140;11.636;2023-09-30T10:14:43;4.68;;;2.22;;
9424;SDS011;17139;52.140;11.636;2023-09-30T10:17:10;8.52;;;2.45;;
9424;SDS011;17139;52.140;11.636;2023-09-30T10:22:32;2.47;;;2.28;;
9424;SDS011;17139;52.140;11.636;2023-09-30T10:24:59;3.78;;;2.33;;
9424;SDS011;17139;52.140;11.636;2023-09-30T10:27:32;4.97;;;2.38;;
9424;SDS011;17139;52.140;11.636;2023-09-30T10:30:09;4.25;;;1.92;;
9424;SDS011;17139;52.140;11.636;2023-09-30T10:35:43;7.72;;;2.30;;
9424;SDS011;17139;52.140;11.636;2023-09-30T10:41:06;2.67;;;1.90;;
9424;SDS011;17139;52.140;11.636;2023-09-30T10:43:36;3.17;;;2.08;;
9424;SDS011;17139;52.140;11.636;2023-09-30T10:48:57;5.03;;;2.10;;
9424;SDS011;17139;52.140;11.636;2023-09-30T10:51:42;3.00;;;1.90;;
9424;SDS011;17139;52.140;11.636;2023-09-30T10:54:12;5.20;;;1.90;;
9424;SDS011;17139;52.140;11.636;2023-09-30T10:56:39;3.20;;;1.98;;
9424;SDS011;17139;52.140;11.636;2023-09-30T10:59:08;2.45;;;2.05;;
9424;SDS011;17139;52.140;11.636;2023-09-30T11:01:35;3.58;;;1.85;;
9424;SDS011;17139;52.140;11.636;2023-09-30T11:04:03;1.50;;;1.40;;
9424;SDS011;17139;52.140;11.636;2023-09-30T11:06:32;3.90;;;1.70;;
9424;SDS011;17139;52.140;11.636;2023-09-30T11:09:00;4.78;;;1.88;;
9424;SDS011;17139;52.140;11.636;2023-09-30T11:11:32;1.80;;;1.70;;
9424;SDS011;17139;52.140;11.636;2023-09-30T11:14:00;6.07;;;1.88;;
9424;SDS011;17139;52.140;11.636;2023-09-30T11:16:29;2.60;;;1.67;;
9424;SDS011;17139;52.140;11.636;2023-09-30T11:18:57;2.25;;;1.90;;
9424;SDS011;17139;52.140;11.636;2023-09-30T11:21:24;2.63;;;2.40;;
9424;SDS011;17139;52.140;11.636;2023-09-30T11:23:51;3.47;;;2.00;;
9424;SDS011;17139;52.140;11.636;2023-09-30T11:26:28;4.30;;;2.33;;
9424;SDS011;17139;52.140;11.636;2023-09-30T11:29:04;5.00;;;2.00;;
9424;SDS011;17139;52.140;11.636;2023-09-30T11:31:33;1.50;;;1.40;;
9424;SDS011;17139;52.140;11.636;2023-09-30T11:34:03;1.63;;;1.52;;
9424;SDS011;17139;52.140;11.636;2023-09-30T11:36:33;2.85;;;1.67;;
9424;SDS011;17139;52.140;11.636;2023-09-30T11:39:01;6.18;;;1.88;;
9424;SDS011;17139;52.140;11.636;2023-09-30T11:41:34;2.97;;;1.33;;
9424;SDS011;17139;52.140;11.636;2023-09-30T11:44:04;2.70;;;1.73;;
9424;SDS011;17139;52.140;11.636;2023-09-30T11:46:48;4.10;;;1.67;;
9424;SDS011;17139;52.140;11.636;2023-09-30T11:49:24;1.70;;;1.60;;
9424;SDS011;17139;52.140;11.636;2023-09-30T11:51:53;3.60;;;2.50;;
9424;SDS011;17139;52.140;11.636;2023-09-30T11:54:20;5.88;;;1.92;;
9424;SDS011;17139;52.140;11.636;2023-09-30T11:56:48;2.55;;;1.83;;
9424;SDS011;17139;52.140;11.636;2023-09-30T11:59:17;3.08;;;2.03;;
9424;SDS011;17139;52.140;11.636;2023-09-30T12:01:48;3.25;;;1.83;;
9424;SDS011;17139;52.140;11.636;2023-09-30T12:04:16;1.77;;;1.67;;
9424;SDS011;17139;52.140;11.636;2023-09-30T12:06:44;3.53;;;2.45;;
9424;SDS011;17139;52.140;11.636;2023-09-30T12:09:11;3.72;;;1.75;;
9424;SDS011;17139;52.140;11.636;2023-09-30T12:11:40;4.38;;;2.00;;
9424;SDS011;17139;52.140;11.636;2023-09-30T12:14:09;2.88;;;2.10;;
9424;SDS011;17139;52.140;11.636;2023-09-30T12:16:36;2.80;;;2.28;;
9424;SDS011;17139;52.140;11.636;2023-09-30T12:19:05;2.65;;;1.92;;
9424;SDS011;17139;52.140;11.636;2023-09-30T12:21:32;4.65;;;1.80;;
9424;SDS011;17139;52.140;11.636;2023-09-30T12:24:00;3.88;;;2.20;;
9424;SDS011;17139;52.140;11.636;2023-09-30T12:26:28;5.30;;;3.60;;
9424;SDS011;17139;52.140;11.636;2023-09-30T12:28:55;3.95;;;2.78;;
9424;SDS011;17139;52.140;11.636;2023-09-30T12:31:22;3.93;;;2.00;;
9424;SDS011;17139;52.140;11.636;2023-09-30T12:33:49;5.10;;;2.60;;
9424;SDS011;17139;52.140;11.636;2023-09-30T12:36:18;4.82;;;3.45;;
9424;SDS011;17139;52.140;11.636;2023-09-30T12:38:45;2.00;;;1.90;;
9424;SDS011;17139;52.140;11.636;2023-09-30T12:41:12;2.60;;;2.00;;
9424;SDS011;17139;52.140;11.636;2023-09-30T12:43:40;6.32;;;1.95;;
9424;SDS011;17139;52.140;11.636;2023-09-30T12:46:08;2.20;;;1.92;;
9424;SDS011;17139;52.140;11.636;2023-09-30T12:48:34;8.15;;;2.40;;
9424;SDS011;17139;52.140;11.636;2023-09-30T12:51:03;2.72;;;1.58;;
9424;SDS011;17139;52.140;11.636;2023-09-30T12:53:33;3.40;;;1.98;;
9424;SDS011;17139;52.140;11.636;2023-09-30T12:56:00;3.67;;;2.10;;
9424;SDS011;17139;52.140;11.636;2023-09-30T12:58:27;3.35;;;2.42;;
9424;SDS011;17139;52.140;11.636;2023-09-30T13:00:54;3.00;;;1.83;;
9424;SDS011;17139;52.140;11.636;2023-09-30T13:03:21;2.50;;;2.15;;
9424;SDS011;17139;52.140;11.636;2023-09-30T13:05:48;2.00;;;1.90;;
9424;SDS011;17139;52.140;11.636;2023-09-30T13:08:16;4.28;;;1.80;;
9424;SDS011;17139;52.140;11.636;2023-09-30T13:10:44;4.15;;;1.98;;
9424;SDS011;17139;52.140;11.636;2023-09-30T13:13:15;2.55;;;1.70;;
9424;SDS011;17139;52.140;11.636;2023-09-30T13:15:42;1.67;;;1.58;;
9424;SDS011;17139;52.140;11.636;2023-09-30T13:18:08;4.82;;;1.90;;
9424;SDS011;17139;52.140;11.636;2023-09-30T13:20:35;1.70;;;1.60;;
9424;SDS011;17139;52.140;11.636;2023-09-30T13:23:02;3.53;;;2.05;;
9424;SDS011;17139;52.140;11.636;2023-09-30T13:25:30;4.82;;;2.03;;
9424;SDS011;17139;52.140;11.636;2023-09-30T13:27:58;4.80;;;2.30;;
9424;SDS011;17139;52.140;11.636;2023-09-30T13:30:26;8.95;;;2.38;;
9424;SDS011;17139;52.140;11.636;2023-09-30T13:32:53;3.85;;;2.28;;
9424;SDS011;17139;52.140;11.636;2023-09-30T13:35:21;2.38;;;2.17;;
9424;SDS011;17139;52.140;11.636;2023-09-30T13:37:48;2.42;;;2.03;;
9424;SDS011;17139;52.140;11.636;2023-09-30T13:40:15;3.28;;;2.30;;
9424;SDS011;17139;52.140;11.636;2023-09-30T13:42:42;3.30;;;2.28;;
9424;SDS011;17139;52.140;11.636;2023-09-30T13:45:11;2.30;;;2.10;;
9424;SDS011;17139;52.140;11.636;2023-09-30T13:47:38;4.00;;;2.33;;
9424;SDS011;17139;52.140;11.636;2023-09-30T13:50:06;3.45;;;2.50;;
9424;SDS011;17139;52.140;11.636;2023-09-30T13:52:33;4.45;;;3.08;;
9424;SDS011;17139;52.140;11.636;2023-09-30T13:55:00;1.88;;;1.77;;
9424;SDS011;17139;52.140;11.636;2023-09-30T13:57:29;8.70;;;2.20;;
9424;SDS011;17139;52.140;11.636;2023-09-30T13:59:56;2.90;;;2.70;;
9424;SDS011;17139;52.140;11.636;2023-09-30T14:02:25;5.28;;;2.30;;
9424;SDS011;17139;52.140;11.636;2023-09-30T14:04:52;3.00;;;2.20;;
9424;SDS011;17139;52.140;11.636;2023-09-30T14:07:19;5.90;;;2.80;;
9424;SDS011;17139;52.140;11.636;2023-09-30T14:09:46;3.20;;;2.90;;
9424;SDS011;17139;52.140;11.636;2023-09-30T14:12:13;5.38;;;2.00;;
9424;SDS011;17139;52.140;11.636;2023-09-30T14:14:41;2.20;;;1.70;;
9424;SDS011;17139;52.140;11.636;2023-09-30T14:17:08;2.40;;;2.20;;
9424;SDS011;17139;52.140;11.636;2023-09-30T14:19:37;4.93;;;2.03;;
9424;SDS011;17139;52.140;11.636;2023-09-30T14:22:05;2.47;;;1.85;;
9424;SDS011;17139;52.140;11.636;2023-09-30T14:24:34;2.38;;;2.05;;
9424;SDS011;17139;52.140;11.636;2023-09-30T14:27:02;2.65;;;1.73;;
9424;SDS011;17139;52.140;11.636;2023-09-30T14:29:29;3.15;;;2.10;;
9424;SDS011;17139;52.140;11.636;2023-09-30T14:31:57;3.63;;;2.22;;
9424;SDS011;17139;52.140;11.636;2023-09-30T14:34:24;3.25;;;2.40;;
9424;SDS011;17139;52.140;11.636;2023-09-30T14:36:52;4.28;;;2.08;;
9424;SDS011;17139;52.140;11.636;2023-09-30T14:39:20;3.35;;;2.20;;
9424;SDS011;17139;52.140;11.636;2023-09-30T14:41:47;1.73;;;1.63;;
9424;SDS011;17139;52.140;11.636;2023-09-30T14:44:14;1.95;;;1.77;;
9424;SDS011;17139;52.140;11.636;2023-09-30T14:46:42;5.25;;;2.40;;
9424;SDS011;17139;52.140;11.636;2023-09-30T14:49:09;2.05;;;1.77;;
9424;SDS011;17139;52.140;11.636;2023-09-30T14:51:36;2.05;;;1.73;;
9424;SDS011;17139;52.140;11.636;2023-09-30T14:54:05;4.15;;;1.85;;
9424;SDS011;17139;52.140;11.636;2023-09-30T14:56:32;2.08;;;1.60;;
9424;SDS011;17139;52.140;11.636;2023-09-30T14:58:59;5.03;;;2.20;;
9424;SDS011;17139;52.140;11.636;2023-09-30T15:01:27;3.47;;;1.58;;
9424;SDS011;17139;52.140;11.636;2023-09-30T15:03:55;3.70;;;1.90;;